createdAt,value
2023-03-22T00:01:28.621Z,21.10
2023-03-22T00:03:56.402Z,20.93
2023-03-22T00:06:24.499Z,19.87
2023-03-22T00:08:53.257Z,19.83
2023-03-22T00:11:24.175Z,19.97
2023-03-22T00:13:52.750Z,20.10
2023-03-22T00:16:20.717Z,18.43
2023-03-22T00:18:48.361Z,17.93
2023-03-22T00:21:16.976Z,19.83
2023-03-22T00:23:44.828Z,21.63
2023-03-22T00:26:14.088Z,20.27
2023-03-22T00:28:43.232Z,20.27
2023-03-22T00:31:11.845Z,16.83
2023-03-22T00:33:39.470Z,21.10
2023-03-22T00:36:08.863Z,21.07
2023-03-22T00:38:42.857Z,20.07
2023-03-22T00:41:13.206Z,20.23
2023-03-22T00:43:40.640Z,20.30
2023-03-22T00:46:10.774Z,19.33
2023-03-22T00:48:38.611Z,19.80
2023-03-22T00:51:06.892Z,17.93
2023-03-22T00:53:36.382Z,20.80
2023-03-22T00:56:04.544Z,20.30
2023-03-22T00:58:32.488Z,19.03
2023-03-22T01:01:00.105Z,20.00
2023-03-22T01:03:29.153Z,19.90
2023-03-22T01:05:56.785Z,19.33
2023-03-22T01:08:24.750Z,19.33
2023-03-22T01:10:52.528Z,19.00
2023-03-22T01:13:20.108Z,19.63
2023-03-22T01:15:51.230Z,18.77
2023-03-22T01:18:18.986Z,20.03
2023-03-22T01:20:47.807Z,19.37
2023-03-22T01:23:15.263Z,20.60
2023-03-22T01:25:42.824Z,18.43
2023-03-22T01:28:10.389Z,20.03
2023-03-22T01:30:40.012Z,19.23
2023-03-22T01:33:08.607Z,20.27
2023-03-22T01:35:36.663Z,20.13
2023-03-22T01:38:05.878Z,21.10
2023-03-22T01:40:34.067Z,18.97
2023-03-22T01:43:01.515Z,21.20
2023-03-22T01:45:36.951Z,21.80
2023-03-22T01:48:09.318Z,20.73
2023-03-22T01:50:38.967Z,21.10
2023-03-22T01:53:09.615Z,20.87
2023-03-22T01:55:38.491Z,19.07
2023-03-22T01:58:06.475Z,21.87
2023-03-22T02:00:34.699Z,20.20
2023-03-22T02:03:02.251Z,20.93
2023-03-22T02:05:30.949Z,20.60
2023-03-22T02:07:58.510Z,20.30
2023-03-22T02:10:28.611Z,20.40
2023-03-22T02:13:12.014Z,21.03
2023-03-22T02:15:46.923Z,18.37
2023-03-22T02:18:28.477Z,18.57
2023-03-22T02:21:22.240Z,18.90
2023-03-22T02:24:28.012Z,19.77
2023-03-22T02:27:34.998Z,18.80
2023-03-22T02:30:25.063Z,20.03
2023-03-22T02:33:13.736Z,19.50
2023-03-22T02:35:51.609Z,21.20
2023-03-22T02:39:00.113Z,20.53
2023-03-22T02:41:39.400Z,20.00
2023-03-22T02:44:13.090Z,20.00
2023-03-22T02:46:46.552Z,19.40
2023-03-22T02:49:21.298Z,19.17
2023-03-22T02:51:53.628Z,18.37
2023-03-22T02:54:28.704Z,17.33
2023-03-22T02:57:02.900Z,20.93
2023-03-22T02:59:34.348Z,18.97
2023-03-22T03:02:06.107Z,18.33
2023-03-22T03:04:39.410Z,18.90
2023-03-22T03:07:10.540Z,17.63
2023-03-22T03:09:42.112Z,19.20
2023-03-22T03:12:14.302Z,19.57
2023-03-22T03:14:42.128Z,16.77
2023-03-22T03:17:21.315Z,18.47
2023-03-22T03:19:59.161Z,38.43
2023-03-22T03:22:36.682Z,28.03
2023-03-22T03:25:15.086Z,18.43
2023-03-22T03:27:49.814Z,18.77
2023-03-22T03:30:27.115Z,18.30
2023-03-22T03:32:59.192Z,17.33
2023-03-22T03:35:29.201Z,17.87
2023-03-22T03:38:01.501Z,18.70
2023-03-22T03:40:33.441Z,18.00
2023-03-22T03:43:04.328Z,17.57
2023-03-22T03:45:31.922Z,16.97
2023-03-22T03:48:02.083Z,15.77
2023-03-22T03:50:30.083Z,19.07
2023-03-22T03:52:57.978Z,19.63
2023-03-22T03:55:27.217Z,14.93
2023-03-22T03:57:56.105Z,18.23
2023-03-22T04:00:24.224Z,15.33
2023-03-22T04:02:51.680Z,16.53
2023-03-22T04:05:19.315Z,15.27
2023-03-22T04:07:46.807Z,17.77
2023-03-22T04:10:14.288Z,19.07
2023-03-22T04:12:41.736Z,18.63
2023-03-22T04:15:12.134Z,16.07
2023-03-22T04:17:39.784Z,17.67
2023-03-22T04:20:10.785Z,16.63
2023-03-22T04:22:39.304Z,18.07
2023-03-22T04:25:11.676Z,17.27
2023-03-22T04:27:40.659Z,16.13
2023-03-22T04:30:12.402Z,16.97
2023-03-22T04:32:40.448Z,18.27
2023-03-22T04:35:08.315Z,17.93
2023-03-22T04:37:36.499Z,17.83
2023-03-22T04:40:07.270Z,18.23
2023-03-22T04:42:35.499Z,16.40
2023-03-22T04:45:03.850Z,17.40
2023-03-22T04:47:32.655Z,17.00
2023-03-22T04:50:00.134Z,17.30
2023-03-22T04:52:27.569Z,17.90
2023-03-22T04:54:54.975Z,17.30
2023-03-22T04:57:22.649Z,17.30
2023-03-22T04:59:50.189Z,16.83
2023-03-22T05:02:17.733Z,18.20
2023-03-22T05:04:46.738Z,19.20
2023-03-22T05:07:14.268Z,16.87
2023-03-22T05:09:41.830Z,18.07
2023-03-22T05:12:09.292Z,19.33
2023-03-22T05:14:36.865Z,18.70
2023-03-22T05:17:04.343Z,16.67
2023-03-22T05:19:33.166Z,17.07
2023-03-22T05:22:02.024Z,18.23
2023-03-22T05:24:30.048Z,17.10
2023-03-22T05:27:01.017Z,16.37
2023-03-22T05:29:29.202Z,16.70
2023-03-22T05:31:56.672Z,17.37
2023-03-22T05:34:24.148Z,16.87
2023-03-22T05:36:51.749Z,18.03
2023-03-22T05:39:20.864Z,16.60
2023-03-22T05:41:48.396Z,16.07
2023-03-22T05:44:15.904Z,17.03
2023-03-22T05:46:43.360Z,17.40
2023-03-22T05:49:12.198Z,15.90
2023-03-22T05:51:42.096Z,16.13
2023-03-22T05:54:09.780Z,17.10
2023-03-22T05:56:40.676Z,16.33
2023-03-22T05:59:08.255Z,16.00
2023-03-22T06:01:35.803Z,15.83
2023-03-22T06:04:03.294Z,16.50
2023-03-22T06:06:30.783Z,16.50
2023-03-22T06:09:14.163Z,16.30
2023-03-22T06:11:44.752Z,16.93
2023-03-22T06:14:12.207Z,15.30
2023-03-22T06:16:39.706Z,16.60
2023-03-22T06:19:07.170Z,15.07
2023-03-22T06:21:34.660Z,16.10
2023-03-22T06:24:02.104Z,15.23
2023-03-22T06:26:29.580Z,15.73
2023-03-22T06:28:58.352Z,17.00
2023-03-22T06:31:26.054Z,14.50
2023-03-22T06:33:55.806Z,15.40
2023-03-22T06:36:23.482Z,15.53
2023-03-22T06:38:51.008Z,16.53
2023-03-22T06:41:18.464Z,15.57
2023-03-22T06:43:46.162Z,16.93
2023-03-22T06:46:15.331Z,16.27
2023-03-22T06:48:42.964Z,15.47
2023-03-22T06:51:10.464Z,15.33
2023-03-22T06:53:38.275Z,15.77
2023-03-22T06:56:06.665Z,15.27
2023-03-22T06:58:34.151Z,16.13
2023-03-22T07:01:01.621Z,15.87
2023-03-22T07:03:30.448Z,15.93
2023-03-22T07:06:02.509Z,16.13
2023-03-22T07:08:30.069Z,16.03
2023-03-22T07:10:57.607Z,16.00
2023-03-22T07:13:25.072Z,15.47
2023-03-22T07:15:56.606Z,15.70
2023-03-22T07:18:24.456Z,15.40
2023-03-22T07:20:53.291Z,15.17
2023-03-22T07:23:20.834Z,15.43
2023-03-22T07:25:49.436Z,15.60
2023-03-22T07:28:17.212Z,15.13
2023-03-22T07:30:44.748Z,15.17
2023-03-22T07:33:12.297Z,15.53
2023-03-22T07:35:39.783Z,16.13
2023-03-22T07:38:08.541Z,15.13
2023-03-22T07:40:37.433Z,14.80
2023-03-22T07:43:05.517Z,15.53
2023-03-22T07:45:33.144Z,14.37
2023-03-22T07:48:00.998Z,14.80
2023-03-22T07:50:28.598Z,15.03
2023-03-22T07:52:56.056Z,15.13
2023-03-22T07:55:25.097Z,15.33
2023-03-22T07:57:53.716Z,14.40
2023-03-22T08:00:21.831Z,13.57
2023-03-22T08:02:49.718Z,15.20
2023-03-22T08:05:17.311Z,14.23
2023-03-22T08:07:44.953Z,13.67
2023-03-22T08:10:12.816Z,15.47
2023-03-22T08:12:41.588Z,15.70
2023-03-22T08:15:11.113Z,14.50
2023-03-22T08:17:38.630Z,13.73
2023-03-22T08:20:08.905Z,12.50
2023-03-22T08:22:36.546Z,13.00
2023-03-22T08:25:04.694Z,14.00
2023-03-22T08:27:32.442Z,13.57
2023-03-22T08:30:02.508Z,12.03
2023-03-22T08:32:30.027Z,13.30
2023-03-22T08:34:57.475Z,13.73
2023-03-22T08:37:25.243Z,12.90
2023-03-22T08:39:52.874Z,14.30
2023-03-22T08:42:20.321Z,14.23
2023-03-22T08:44:47.919Z,13.20
2023-03-22T08:47:16.846Z,13.70
2023-03-22T08:49:44.319Z,12.87
2023-03-22T08:52:11.915Z,13.60
2023-03-22T08:54:39.575Z,13.10
2023-03-22T08:57:09.439Z,13.00
2023-03-22T08:59:37.063Z,12.90
2023-03-22T09:02:04.773Z,12.93
2023-03-22T09:04:33.690Z,12.87
2023-03-22T09:07:01.355Z,11.90
2023-03-22T09:09:28.815Z,11.77
2023-03-22T09:11:56.280Z,11.97
2023-03-22T09:14:23.781Z,11.50
2023-03-22T09:16:51.868Z,11.33
2023-03-22T09:19:19.430Z,11.50
2023-03-22T09:21:48.455Z,11.40
2023-03-22T09:24:15.955Z,11.57
2023-03-22T09:26:43.409Z,11.53
2023-03-22T09:29:11.018Z,11.80
2023-03-22T09:31:38.526Z,10.20
2023-03-22T09:34:06.829Z,11.60
2023-03-22T09:36:34.395Z,10.93
2023-03-22T09:39:06.620Z,11.23
2023-03-22T09:41:39.175Z,10.73
2023-03-22T09:44:10.351Z,10.47
2023-03-22T09:46:42.610Z,10.10
2023-03-22T09:49:15.537Z,10.13
2023-03-22T09:51:45.542Z,10.83
2023-03-22T09:54:18.575Z,10.40
2023-03-22T09:56:50.793Z,10.03
2023-03-22T09:59:27.229Z,10.93
2023-03-22T10:01:59.964Z,9.97
2023-03-22T10:04:42.032Z,10.40
2023-03-22T10:07:22.492Z,10.53
2023-03-22T10:10:02.046Z,10.63
2023-03-22T10:12:32.210Z,9.97
2023-03-22T10:15:06.918Z,9.63
2023-03-22T10:17:37.135Z,10.03
2023-03-22T10:20:09.536Z,9.50
2023-03-22T10:22:41.557Z,9.40
2023-03-22T10:25:11.158Z,9.57
2023-03-22T10:27:38.689Z,8.63
2023-03-22T10:30:11.279Z,8.57
2023-03-22T10:32:57.156Z,7.97
2023-03-22T10:35:25.874Z,7.33
2023-03-22T10:37:55.575Z,7.77
2023-03-22T10:40:28.050Z,8.07
2023-03-22T10:42:57.882Z,8.20
2023-03-22T10:45:27.201Z,8.47
2023-03-22T10:48:00.945Z,9.37
2023-03-22T10:50:33.298Z,8.10
2023-03-22T10:53:05.198Z,7.67
2023-03-22T10:55:34.050Z,7.93
2023-03-22T10:58:15.575Z,8.17
2023-03-22T11:00:47.339Z,7.13
2023-03-22T11:03:27.862Z,6.57
2023-03-22T11:06:06.314Z,6.37
2023-03-22T11:08:40.568Z,6.00
2023-03-22T11:11:17.970Z,6.27
2023-03-22T11:13:52.093Z,7.53
2023-03-22T11:16:20.243Z,5.80
2023-03-22T11:18:48.137Z,6.80
2023-03-22T11:21:18.320Z,6.33
2023-03-22T11:23:54.006Z,6.70
2023-03-22T11:26:30.928Z,6.07
2023-03-22T11:29:05.618Z,5.77
2023-03-22T11:31:58.277Z,5.33
2023-03-22T11:34:28.534Z,5.80
2023-03-22T11:36:57.598Z,4.73
2023-03-22T11:39:28.279Z,5.23
2023-03-22T11:42:01.571Z,5.10
2023-03-22T11:44:33.015Z,5.43
2023-03-22T11:47:03.072Z,4.73
2023-03-22T11:49:40.614Z,4.97
2023-03-22T11:52:11.412Z,4.43
2023-03-22T11:54:42.421Z,4.40
2023-03-22T11:57:16.950Z,4.40
2023-03-22T11:59:49.740Z,4.30
2023-03-22T12:02:23.815Z,4.27
2023-03-22T12:04:57.350Z,4.30
2023-03-22T12:07:27.726Z,3.90
2023-03-22T12:10:03.309Z,4.00
2023-03-22T12:12:37.741Z,4.17
2023-03-22T12:15:09.320Z,4.27
2023-03-22T12:17:42.736Z,4.50
2023-03-22T12:20:20.702Z,4.60
2023-03-22T12:22:52.693Z,4.77
2023-03-22T12:25:23.712Z,4.57
2023-03-22T12:27:55.825Z,4.23
2023-03-22T12:30:26.295Z,4.43
2023-03-22T12:32:59.810Z,4.40
2023-03-22T12:35:31.361Z,4.30
2023-03-22T12:38:02.502Z,4.50
2023-03-22T12:40:34.370Z,4.83
2023-03-22T12:43:11.493Z,4.20
2023-03-22T12:45:43.494Z,4.37
2023-03-22T12:48:19.366Z,4.63
2023-03-22T12:50:51.461Z,3.93
2023-03-22T12:53:21.267Z,4.00
2023-03-22T12:55:50.327Z,3.20
2023-03-22T12:58:22.391Z,3.80
2023-03-22T13:00:55.299Z,3.90
2023-03-22T13:03:28.812Z,4.13
2023-03-22T13:06:02.670Z,3.93
2023-03-22T13:09:03.948Z,3.87
2023-03-22T13:11:31.499Z,2.90
2023-03-22T13:14:00.391Z,3.50
2023-03-22T13:16:49.709Z,3.97
2023-03-22T13:19:33.902Z,3.70
2023-03-22T13:22:29.300Z,3.37
2023-03-22T13:25:28.951Z,2.77
2023-03-22T13:27:58.824Z,3.30
2023-03-22T13:30:33.010Z,2.57
2023-03-22T13:33:04.439Z,3.43
2023-03-22T13:35:44.407Z,2.50
2023-03-22T13:38:21.046Z,2.50
2023-03-22T13:40:54.741Z,2.73
2023-03-22T13:43:34.227Z,2.80
2023-03-22T13:46:43.171Z,2.77
2023-03-22T13:49:24.482Z,2.57
2023-03-22T13:51:52.508Z,2.47
2023-03-22T13:54:24.767Z,2.33
2023-03-22T13:56:56.911Z,2.80
2023-03-22T13:59:30.104Z,2.70
2023-03-22T14:02:05.077Z,2.50
2023-03-22T14:04:39.384Z,2.40
2023-03-22T14:07:20.503Z,2.00
2023-03-22T14:09:51.584Z,2.30
2023-03-22T14:12:23.578Z,2.87
2023-03-22T14:14:55.912Z,2.80
2023-03-22T14:17:34.158Z,3.10
2023-03-22T14:20:04.912Z,2.47
